createdAt,value
2024-04-19T00:01:23.849Z,81.30
2024-04-19T00:03:51.773Z,81.20
2024-04-19T00:06:19.349Z,81.70
2024-04-19T00:08:47.096Z,81.63
2024-04-19T00:11:14.834Z,81.81
2024-04-19T00:13:42.374Z,82.00
2024-04-19T00:16:09.857Z,82.02
2024-04-19T00:18:37.396Z,81.97
2024-04-19T00:21:05.141Z,82.31
2024-04-19T00:23:32.645Z,82.51
2024-04-19T00:26:00.275Z,82.42
2024-04-19T00:28:28.541Z,82.25
2024-04-19T00:30:56.694Z,82.46
2024-04-19T00:33:24.349Z,82.86
2024-04-19T00:35:51.970Z,82.51
2024-04-19T00:38:20.499Z,82.53
2024-04-19T00:40:48.000Z,82.80
2024-04-19T00:43:15.550Z,82.98
2024-04-19T00:45:43.137Z,82.99
2024-04-19T00:48:15.125Z,82.97
2024-04-19T00:50:46.236Z,83.50
2024-04-19T00:53:16.027Z,83.90
2024-04-19T00:55:43.520Z,84.16
2024-04-19T00:58:11.033Z,84.09
2024-04-19T01:00:38.701Z,84.50
2024-04-19T01:03:06.476Z,85.08
2024-04-19T01:05:34.083Z,85.17
2024-04-19T01:08:02.154Z,85.54
2024-04-19T01:10:30.778Z,86.77
2024-04-19T01:12:58.935Z,87.39
2024-04-19T01:15:26.926Z,88.29
2024-04-19T01:17:56.974Z,88.67
2024-04-19T01:20:24.594Z,88.37
2024-04-19T01:22:52.525Z,88.46
2024-04-19T01:25:26.620Z,88.51
2024-04-19T01:27:54.162Z,88.37
2024-04-19T01:30:21.835Z,88.38
2024-04-19T01:32:49.530Z,88.54
2024-04-19T01:35:17.198Z,88.60
2024-04-19T01:37:45.838Z,88.43
2024-04-19T01:40:13.374Z,88.88
2024-04-19T01:42:40.894Z,88.96
2024-04-19T01:45:08.419Z,89.17
2024-04-19T01:47:36.570Z,89.52
2024-04-19T01:50:07.573Z,89.19
2024-04-19T01:52:35.335Z,89.28
2024-04-19T01:55:03.465Z,89.18
2024-04-19T01:57:31.392Z,89.22
2024-04-19T01:59:58.949Z,89.39
2024-04-19T02:02:28.150Z,89.67
2024-04-19T02:04:57.101Z,89.28
2024-04-19T02:07:24.596Z,89.69
2024-04-19T02:09:52.149Z,89.40
2024-04-19T02:12:19.844Z,89.06
2024-04-19T02:14:47.418Z,89.15
2024-04-19T02:17:14.981Z,89.42
2024-04-19T02:19:44.562Z,89.32
2024-04-19T02:22:12.042Z,89.55
2024-04-19T02:24:42.448Z,89.57
2024-04-19T02:27:32.411Z,89.30
2024-04-19T02:30:20.055Z,89.14
2024-04-19T02:32:47.668Z,89.26
2024-04-19T02:35:15.508Z,89.33
2024-04-19T02:37:44.051Z,89.39
2024-04-19T02:40:11.569Z,89.20
2024-04-19T02:42:40.288Z,89.29
2024-04-19T02:45:08.208Z,89.43
2024-04-19T02:47:37.343Z,89.38
2024-04-19T02:50:04.989Z,89.18
2024-04-19T02:52:32.562Z,89.51
2024-04-19T02:55:03.706Z,89.16
2024-04-19T02:57:33.082Z,89.12
2024-04-19T03:00:00.706Z,89.26
2024-04-19T03:02:28.627Z,89.51
2024-04-19T03:04:56.393Z,89.37
2024-04-19T03:07:23.864Z,89.51
2024-04-19T03:09:51.781Z,89.95
2024-04-19T03:12:19.334Z,89.75
2024-04-19T03:14:47.626Z,89.98
2024-04-19T03:17:15.213Z,89.97
2024-04-19T03:19:42.908Z,90.30
2024-04-19T03:22:10.477Z,90.25
2024-04-19T03:24:38.011Z,90.45
2024-04-19T03:27:05.776Z,90.23
2024-04-19T03:29:33.279Z,90.25
2024-04-19T03:32:00.842Z,90.51
2024-04-19T03:34:28.625Z,90.66
2024-04-19T03:36:56.169Z,90.56
2024-04-19T03:39:23.775Z,91.05
2024-04-19T03:41:52.879Z,91.13
2024-04-19T03:44:39.084Z,91.01
2024-04-19T03:47:08.100Z,91.32
2024-04-19T03:49:35.672Z,91.29
2024-04-19T03:52:03.290Z,91.33
2024-04-19T03:54:30.861Z,91.38
2024-04-19T03:56:58.676Z,91.61
2024-04-19T03:59:27.716Z,91.74
2024-04-19T04:01:55.223Z,91.72
2024-04-19T04:04:22.856Z,91.93
2024-04-19T04:06:51.094Z,91.58
2024-04-19T04:09:18.947Z,91.86
2024-04-19T04:11:46.497Z,92.35
2024-04-19T04:14:14.084Z,92.12
2024-04-19T04:16:42.611Z,92.45
2024-04-19T04:19:10.192Z,92.54
2024-04-19T04:21:37.876Z,93.08
2024-04-19T04:24:06.311Z,93.09
2024-04-19T04:26:33.831Z,93.49
2024-04-19T04:29:01.530Z,93.57
2024-04-19T04:31:29.283Z,93.24
2024-04-19T04:33:58.860Z,93.53
2024-04-19T04:36:26.952Z,93.56
2024-04-19T04:38:54.448Z,93.86
2024-04-19T04:41:22.200Z,93.77
2024-04-19T04:43:50.136Z,94.05
2024-04-19T04:46:17.698Z,94.18
2024-04-19T04:48:45.310Z,93.81
2024-04-19T04:51:13.742Z,94.06
2024-04-19T04:53:41.296Z,93.66
2024-04-19T04:56:08.867Z,93.97
2024-04-19T04:58:36.385Z,93.76
2024-04-19T05:01:04.138Z,93.80
2024-04-19T05:03:33.237Z,93.68
2024-04-19T05:06:00.811Z,93.67
2024-04-19T05:08:31.331Z,93.70
2024-04-19T05:10:59.028Z,93.52
2024-04-19T05:13:28.451Z,93.61
2024-04-19T05:15:56.167Z,93.41
2024-04-19T05:18:23.775Z,93.41
2024-04-19T05:20:51.451Z,93.42
2024-04-19T05:23:19.352Z,93.29
2024-04-19T05:25:51.730Z,93.53
2024-04-19T05:28:21.977Z,93.38
2024-04-19T05:30:50.836Z,93.31
2024-04-19T05:33:18.509Z,93.20
2024-04-19T05:35:46.210Z,92.98
2024-04-19T05:38:13.793Z,92.92
2024-04-19T05:40:41.943Z,92.89
2024-04-19T05:43:10.537Z,92.68
2024-04-19T05:45:38.572Z,92.52
2024-04-19T05:48:06.759Z,92.43
2024-04-19T05:50:34.592Z,92.25
2024-04-19T05:53:02.432Z,91.93
2024-04-19T05:55:34.061Z,91.69
2024-04-19T05:58:01.628Z,91.20
2024-04-19T06:00:31.354Z,91.02
2024-04-19T06:02:58.999Z,90.36
2024-04-19T06:05:29.726Z,90.23
2024-04-19T06:07:58.294Z,90.01
2024-04-19T06:10:26.095Z,89.24
2024-04-19T06:12:54.656Z,88.79
2024-04-19T06:15:22.803Z,88.57
2024-04-19T06:17:55.404Z,87.60
2024-04-19T06:20:23.471Z,87.06
2024-04-19T06:22:51.139Z,86.33
2024-04-19T06:25:19.677Z,86.31
2024-04-19T06:27:49.188Z,85.75
2024-04-19T06:30:16.955Z,86.30
2024-04-19T06:32:44.636Z,86.19
2024-04-19T06:35:16.205Z,86.04
2024-04-19T06:37:43.624Z,85.12
2024-04-19T06:40:11.488Z,84.78
2024-04-19T06:42:39.222Z,84.09
2024-04-19T06:45:08.291Z,84.18
2024-04-19T06:47:35.991Z,83.82
2024-04-19T06:50:05.066Z,83.81
2024-04-19T06:52:32.647Z,83.30
2024-04-19T06:55:00.394Z,83.29
2024-04-19T06:57:28.073Z,83.31
2024-04-19T07:00:06.190Z,83.07
2024-04-19T07:02:48.662Z,83.04
2024-04-19T07:05:16.895Z,82.64
2024-04-19T07:07:49.039Z,82.61
2024-04-19T07:10:16.777Z,82.80
2024-04-19T07:12:44.467Z,82.25
2024-04-19T07:15:12.242Z,81.60
2024-04-19T07:17:40.954Z,82.06
2024-04-19T07:20:09.465Z,81.29
2024-04-19T07:22:37.181Z,80.14
2024-04-19T07:25:07.697Z,80.06
2024-04-19T07:27:42.801Z,79.14
2024-04-19T07:30:15.384Z,79.24
2024-04-19T07:32:43.044Z,78.84
2024-04-19T07:35:10.765Z,78.21
2024-04-19T07:37:38.385Z,77.52
2024-04-19T07:40:06.818Z,76.88
2024-04-19T07:42:35.410Z,75.69
2024-04-19T07:45:03.392Z,75.54
2024-04-19T07:47:31.567Z,75.34
2024-04-19T07:49:59.133Z,75.20
2024-04-19T07:52:27.056Z,74.72
2024-04-19T07:54:54.770Z,74.17
2024-04-19T07:57:22.304Z,73.40
2024-04-19T07:59:51.265Z,72.54
2024-04-19T08:02:21.645Z,72.29
2024-04-19T08:04:49.364Z,72.50
2024-04-19T08:07:24.143Z,72.67
2024-04-19T08:09:56.663Z,72.01
2024-04-19T08:12:24.966Z,70.78
2024-04-19T08:14:52.748Z,69.65
2024-04-19T08:17:21.094Z,67.53
2024-04-19T08:19:50.221Z,66.57
2024-04-19T08:22:18.272Z,65.95
2024-04-19T08:24:46.023Z,66.13
2024-04-19T08:27:13.664Z,64.49
2024-04-19T08:29:41.313Z,62.84
2024-04-19T08:32:10.351Z,60.96
2024-04-19T08:34:38.518Z,60.94
2024-04-19T08:37:06.122Z,61.03
2024-04-19T08:39:34.205Z,60.67
2024-04-19T08:42:06.578Z,59.94
2024-04-19T08:44:35.354Z,60.49
2024-04-19T08:47:03.123Z,61.29
2024-04-19T08:49:30.937Z,61.06
2024-04-19T08:52:13.749Z,60.49
2024-04-19T08:54:47.318Z,60.76
2024-04-19T08:57:17.213Z,59.49
2024-04-19T08:59:48.506Z,58.39
2024-04-19T09:02:20.274Z,58.24
2024-04-19T09:04:48.071Z,58.21
2024-04-19T09:07:15.621Z,58.82
2024-04-19T09:09:44.723Z,59.24
2024-04-19T09:12:14.542Z,59.40
2024-04-19T09:14:42.118Z,58.76
2024-04-19T09:17:09.630Z,58.60
2024-04-19T09:19:37.376Z,58.67
2024-04-19T09:22:05.171Z,58.51
2024-04-19T09:24:32.783Z,57.76
2024-04-19T09:27:14.185Z,57.39
2024-04-19T09:29:43.607Z,56.78
2024-04-19T09:32:11.406Z,57.34
2024-04-19T09:34:40.531Z,58.31
2024-04-19T09:37:08.464Z,57.36
2024-04-19T09:39:36.341Z,58.15
2024-04-19T09:42:06.333Z,58.49
2024-04-19T09:44:34.091Z,59.62
2024-04-19T09:47:06.101Z,62.07
2024-04-19T09:49:34.000Z,64.07
2024-04-19T09:52:02.663Z,64.91
2024-04-19T09:54:35.223Z,66.10
2024-04-19T09:57:04.879Z,66.54
2024-04-19T09:59:35.659Z,65.98
2024-04-19T10:02:06.615Z,66.02
2024-04-19T10:04:45.569Z,66.72
2024-04-19T10:07:15.424Z,67.18
2024-04-19T10:09:43.919Z,66.07
2024-04-19T10:12:13.290Z,65.65
2024-04-19T10:14:41.322Z,65.43
2024-04-19T10:17:08.948Z,66.25
2024-04-19T10:19:45.507Z,65.04
2024-04-19T10:22:23.679Z,62.63
2024-04-19T10:25:01.336Z,60.61
2024-04-19T10:27:30.641Z,60.37
2024-04-19T10:30:00.880Z,59.78
2024-04-19T10:32:30.297Z,60.24
2024-04-19T10:34:59.218Z,57.74
2024-04-19T10:37:31.155Z,57.39
2024-04-19T10:39:58.738Z,56.82
2024-04-19T10:42:26.444Z,56.42
2024-04-19T10:44:54.421Z,55.27
2024-04-19T10:47:24.702Z,55.65
2024-04-19T10:49:53.617Z,55.29
2024-04-19T10:52:23.627Z,55.57
2024-04-19T10:54:51.280Z,55.88
2024-04-19T10:57:20.282Z,55.90
2024-04-19T10:59:47.848Z,55.84
2024-04-19T11:02:17.300Z,56.39
2024-04-19T11:04:45.518Z,55.53
2024-04-19T11:07:13.329Z,55.55
2024-04-19T11:09:41.618Z,56.99
2024-04-19T11:12:10.147Z,57.45
2024-04-19T11:14:37.843Z,58.61
2024-04-19T11:17:11.382Z,59.19
2024-04-19T11:19:39.691Z,60.45
2024-04-19T11:22:09.675Z,63.19
2024-04-19T11:24:39.484Z,64.68
2024-04-19T11:27:08.914Z,64.63
2024-04-19T11:29:36.890Z,65.50
2024-04-19T11:32:07.718Z,67.48
2024-04-19T11:34:40.219Z,68.58
2024-04-19T11:37:11.719Z,68.42
2024-04-19T11:39:41.506Z,67.31
2024-04-19T11:42:10.410Z,66.18
2024-04-19T11:44:45.553Z,65.63
2024-04-19T11:47:13.307Z,66.27
2024-04-19T11:49:43.636Z,66.72
2024-04-19T11:52:11.241Z,66.99
2024-04-19T11:54:39.023Z,67.65
2024-04-19T11:57:07.402Z,68.00
2024-04-19T11:59:35.936Z,68.93
2024-04-19T12:02:03.802Z,69.83
2024-04-19T12:04:31.598Z,69.76
2024-04-19T12:07:00.670Z,68.07
2024-04-19T12:09:28.945Z,66.96
2024-04-19T12:15:23.993Z,61.65
2024-04-19T12:17:30.446Z,61.63
2024-04-19T12:20:08.000Z,61.06
2024-04-19T12:22:48.564Z,60.92
2024-04-19T12:25:23.082Z,59.93
2024-04-19T12:27:51.185Z,59.68
2024-04-19T12:30:24.479Z,58.02
2024-04-19T12:32:52.227Z,57.58
2024-04-19T12:35:19.867Z,58.56
2024-04-19T12:37:50.388Z,58.90
2024-04-19T12:40:19.036Z,59.10
2024-04-19T12:42:47.254Z,57.27
2024-04-19T12:45:15.580Z,57.36
2024-04-19T12:48:11.155Z,56.10
2024-04-19T12:50:38.885Z,55.77
2024-04-19T12:53:06.603Z,54.89
2024-04-19T12:55:35.764Z,55.63
2024-04-19T12:58:03.384Z,57.22
2024-04-19T13:00:33.346Z,58.67
2024-04-19T13:03:01.851Z,60.47
2024-04-19T13:05:33.022Z,62.36
2024-04-19T13:08:00.914Z,64.83
2024-04-19T13:10:28.878Z,66.30
2024-04-19T13:12:57.735Z,65.81
2024-04-19T13:15:25.685Z,65.55
2024-04-19T13:17:54.260Z,64.68
2024-04-19T13:20:21.886Z,66.00
2024-04-19T13:22:49.486Z,66.93
2024-04-19T13:25:20.812Z,67.01
2024-04-19T13:27:48.461Z,66.25
2024-04-19T13:30:16.060Z,66.31
2024-04-19T13:32:44.659Z,65.98
2024-04-19T13:35:14.285Z,65.46
2024-04-19T13:37:41.966Z,64.83
2024-04-19T13:40:11.180Z,64.18
2024-04-19T13:42:39.636Z,62.99
2024-04-19T13:45:09.162Z,63.21
2024-04-19T13:47:37.400Z,63.88
2024-04-19T13:50:07.255Z,64.57
2024-04-19T13:52:34.857Z,64.59
2024-04-19T13:55:06.218Z,64.94
2024-04-19T13:57:34.497Z,64.95
2024-04-19T14:00:06.233Z,65.06
2024-04-19T14:02:35.159Z,65.10
2024-04-19T14:05:04.002Z,65.51
2024-04-19T14:07:31.749Z,65.39
2024-04-19T14:10:00.667Z,65.85
2024-04-19T14:12:30.834Z,66.35
2024-04-19T14:15:02.298Z,66.02
2024-04-19T14:17:31.111Z,66.36
2024-04-19T14:20:00.844Z,66.84
2024-04-19T14:22:28.829Z,66.92
2024-04-19T14:24:56.554Z,67.17
2024-04-19T14:27:26.074Z,67.90
2024-04-19T14:29:57.202Z,68.96
2024-04-19T14:32:28.894Z,69.43
2024-04-19T14:34:56.858Z,69.80
2024-04-19T14:37:24.805Z,70.40
2024-04-19T14:39:52.627Z,70.70
2024-04-19T14:42:22.351Z,71.22
2024-04-19T14:45:01.921Z,71.59
2024-04-19T14:47:31.342Z,71.75
2024-04-19T14:50:00.052Z,72.09
2024-04-19T14:52:29.934Z,72.33
2024-04-19T14:54:58.013Z,72.72
2024-04-19T14:57:26.866Z,73.36
2024-04-19T15:00:01.342Z,74.27
2024-04-19T15:02:36.134Z,75.37
2024-04-19T15:05:03.948Z,75.96
2024-04-19T15:07:32.457Z,76.81
2024-04-19T15:10:00.747Z,77.44
2024-04-19T15:12:30.836Z,77.31
2024-04-19T15:14:59.909Z,76.71
2024-04-19T15:17:27.911Z,76.90
2024-04-19T15:19:56.542Z,76.33
2024-04-19T15:22:25.931Z,77.17
2024-04-19T15:24:53.665Z,77.67
2024-04-19T15:27:21.300Z,78.58
2024-04-19T15:29:49.299Z,79.06
2024-04-19T15:32:19.879Z,79.32
2024-04-19T15:34:48.620Z,79.92
2024-04-19T15:37:17.102Z,79.54
2024-04-19T15:39:48.744Z,79.18
2024-04-19T15:42:16.952Z,79.45
2024-04-19T15:44:48.078Z,80.34
2024-04-19T15:47:15.995Z,80.44
2024-04-19T15:49:47.194Z,80.69
2024-04-19T15:52:16.933Z,80.05
2024-04-19T15:54:44.556Z,79.76
2024-04-19T15:57:13.241Z,79.48
2024-04-19T15:59:46.713Z,79.44
2024-04-19T16:02:14.685Z,79.70
2024-04-19T16:04:45.651Z,79.95
2024-04-19T16:07:14.170Z,80.27
2024-04-19T16:09:41.983Z,80.53
2024-04-19T16:12:09.959Z,80.79
2024-04-19T16:14:38.111Z,80.70
2024-04-19T16:17:06.083Z,81.35
2024-04-19T16:19:37.592Z,81.77
2024-04-19T16:22:05.863Z,82.05
2024-04-19T16:24:34.025Z,82.04
2024-04-19T16:27:03.118Z,82.07
2024-04-19T16:29:31.900Z,82.07
2024-04-19T16:31:59.502Z,82.27
2024-04-19T16:34:27.097Z,82.57
2024-04-19T16:36:55.045Z,82.54
2024-04-19T16:39:22.726Z,82.65
2024-04-19T16:41:50.457Z,82.47
2024-04-19T16:44:20.830Z,82.85
2024-04-19T16:46:50.697Z,82.84
2024-04-19T16:49:19.394Z,83.25
2024-04-19T16:51:57.724Z,83.43
2024-04-19T16:54:33.475Z,83.54
2024-04-19T16:57:02.154Z,83.67
2024-04-19T16:59:29.759Z,83.82
2024-04-19T17:01:57.711Z,84.07
2024-04-19T17:04:26.223Z,84.21
2024-04-19T17:06:56.893Z,84.31
2024-04-19T17:09:27.055Z,84.68
2024-04-19T17:11:55.464Z,84.94
2024-04-19T17:14:24.662Z,85.01
2024-04-19T17:16:55.435Z,85.35
2024-04-19T17:19:26.105Z,85.29
2024-04-19T17:21:55.106Z,85.53
2024-04-19T17:24:23.303Z,85.53
2024-04-19T17:26:55.478Z,85.63
2024-04-19T17:29:23.174Z,85.76
2024-04-19T17:31:57.764Z,86.08
2024-04-19T17:34:25.373Z,86.04
2024-04-19T17:36:54.577Z,85.95
2024-04-19T17:39:22.675Z,86.25
2024-04-19T17:41:50.246Z,86.15
2024-04-19T17:44:18.687Z,86.22
2024-04-19T17:49:46.995Z,85.98
2024-04-19T17:52:15.586Z,86.14
2024-04-19T17:54:50.084Z,86.09
2024-04-19T17:57:19.010Z,85.98
2024-04-19T17:59:51.674Z,86.18
2024-04-19T18:02:28.372Z,86.38
2024-04-19T18:04:57.729Z,86.40
2024-04-19T18:07:27.905Z,86.33
2024-04-19T18:09:56.682Z,86.71
2024-04-19T18:12:24.494Z,86.77
2024-04-19T18:14:52.345Z,86.95
2024-04-19T18:17:22.803Z,87.25
2024-04-19T18:20:16.145Z,87.44
2024-04-19T18:22:45.119Z,87.72
2024-04-19T18:25:14.052Z,87.70
2024-04-19T18:27:44.633Z,88.00
2024-04-19T18:30:19.502Z,88.01
2024-04-19T18:32:48.897Z,88.22
2024-04-19T18:35:23.544Z,88.45
2024-04-19T18:37:54.017Z,88.66
2024-04-19T18:40:26.370Z,88.82
2024-04-19T18:42:54.284Z,88.99
2024-04-19T18:45:28.645Z,89.09
2024-04-19T18:47:58.592Z,89.41
2024-04-19T18:50:27.376Z,89.44
2024-04-19T18:52:57.003Z,89.54
2024-04-19T18:58:26.123Z,90.02
2024-04-19T19:00:55.626Z,90.00
2024-04-19T19:03:26.312Z,90.04
2024-04-19T19:06:14.953Z,90.23
2024-04-19T19:08:46.866Z,90.22
2024-04-19T19:11:34.031Z,90.16
2024-04-19T19:14:08.420Z,90.31
2024-04-19T19:16:38.568Z,90.31
2024-04-19T19:19:16.523Z,90.36
2024-04-19T19:21:54.599Z,90.44
2024-04-19T19:24:42.788Z,90.46
2024-04-19T19:30:46.668Z,90.72
2024-04-19T19:33:18.890Z,90.67
2024-04-19T19:36:11.192Z,90.81
2024-04-19T19:38:43.688Z,91.01
2024-04-19T19:41:13.678Z,90.89
2024-04-19T19:43:42.329Z,90.91
2024-04-19T19:46:11.508Z,91.04
2024-04-19T19:48:40.594Z,91.05
2024-04-19T19:51:20.073Z,91.38
2024-04-19T19:53:50.019Z,91.21
2024-04-19T19:56:20.529Z,91.24
2024-04-19T19:58:49.736Z,91.39
2024-04-19T20:01:48.008Z,91.41
2024-04-19T20:04:34.229Z,91.40
2024-04-19T20:07:03.088Z,91.61
2024-04-19T20:09:31.117Z,91.67
2024-04-19T20:12:03.093Z,91.63
2024-04-19T20:17:28.953Z,91.78
2024-04-19T20:19:58.574Z,91.68
2024-04-19T20:22:26.121Z,91.96
2024-04-19T20:24:53.940Z,92.11
2024-04-19T20:27:23.275Z,92.08
2024-04-19T20:29:50.898Z,92.43
2024-04-19T20:32:18.786Z,92.45
2024-04-19T20:34:46.971Z,92.16
2024-04-19T20:37:14.976Z,92.11
2024-04-19T20:39:42.744Z,92.30
2024-04-19T20:42:10.357Z,92.59
2024-04-19T20:44:39.990Z,92.42
2024-04-19T20:47:09.131Z,92.58
2024-04-19T20:49:37.662Z,92.45
2024-04-19T20:52:05.690Z,92.54
2024-04-19T20:54:34.355Z,92.75
2024-04-19T20:57:05.800Z,92.58
2024-04-19T20:59:39.523Z,92.88
2024-04-19T21:02:07.633Z,92.85
2024-04-19T21:04:46.528Z,92.81
2024-04-19T21:07:17.659Z,93.19
2024-04-19T21:09:55.506Z,93.19
2024-04-19T21:12:31.601Z,93.33
2024-04-19T21:15:20.053Z,93.51
2024-04-19T21:17:51.970Z,93.51
2024-04-19T21:20:20.045Z,93.53
2024-04-19T21:22:47.760Z,93.52
2024-04-19T21:25:19.371Z,93.62
2024-04-19T21:27:51.311Z,93.64
2024-04-19T21:30:22.704Z,93.49
2024-04-19T21:32:51.712Z,93.18
2024-04-19T21:35:25.111Z,93.20
2024-04-19T21:37:54.113Z,93.29
2024-04-19T21:40:27.072Z,93.15
2024-04-19T21:42:56.693Z,92.69
2024-04-19T21:45:26.068Z,92.77
2024-04-19T21:47:54.384Z,92.64
2024-04-19T21:50:23.904Z,92.59
2024-04-19T21:52:51.762Z,92.42
2024-04-19T21:55:19.443Z,92.35
2024-04-19T21:57:47.680Z,92.23
2024-04-19T22:00:18.884Z,92.25
2024-04-19T22:02:47.192Z,92.11
2024-04-19T22:05:15.571Z,92.00
2024-04-19T22:07:45.384Z,92.06
2024-04-19T22:10:13.152Z,92.23
2024-04-19T22:12:40.788Z,92.36
2024-04-19T22:15:09.167Z,92.34
2024-04-19T22:17:37.765Z,92.09
2024-04-19T22:20:09.150Z,92.05
2024-04-19T22:22:36.851Z,92.03
2024-04-19T22:25:05.626Z,91.91
2024-04-19T22:27:34.846Z,92.04
2024-04-19T22:30:10.108Z,91.99
2024-04-19T22:33:00.091Z,91.96
2024-04-19T22:35:28.894Z,91.87
2024-04-19T22:37:56.449Z,91.74
2024-04-19T22:40:23.991Z,91.82
2024-04-19T22:42:54.690Z,92.00
2024-04-19T22:45:22.316Z,91.86
2024-04-19T22:47:49.857Z,92.04
2024-04-19T22:50:17.440Z,92.12
2024-04-19T22:52:44.923Z,92.09
2024-04-19T22:55:12.463Z,92.00
2024-04-19T22:57:40.086Z,92.42
2024-04-19T23:00:08.474Z,92.30
2024-04-19T23:02:36.224Z,92.42
2024-04-19T23:05:04.051Z,92.67
2024-04-19T23:07:31.603Z,92.22
2024-04-19T23:09:59.308Z,92.77
2024-04-19T23:12:26.919Z,92.49
2024-04-19T23:14:54.497Z,92.64
2024-04-19T23:17:23.165Z,92.32
2024-04-19T23:19:51.172Z,93.01
2024-04-19T23:22:18.676Z,92.98
2024-04-19T23:24:46.784Z,93.16
2024-04-19T23:27:14.300Z,93.28
2024-04-19T23:29:42.871Z,93.09
2024-04-19T23:32:10.960Z,93.35
2024-04-19T23:34:38.679Z,93.48
2024-04-19T23:37:06.256Z,92.95
2024-04-19T23:39:33.839Z,92.79
2024-04-19T23:42:01.405Z,93.06
2024-04-19T23:44:28.933Z,93.19
2024-04-19T23:46:56.493Z,93.69
2024-04-19T23:49:24.041Z,93.62
2024-04-19T23:51:52.628Z,93.62
2024-04-19T23:54:20.229Z,93.14
2024-04-19T23:56:47.798Z,93.12
2024-04-19T23:59:15.561Z,92.66
